Aérodrome :
LOGIN :

S'inscrire | Disclaimer

   EN    FR    IT 

 










Légende :    VFR   VFR Marginal   IFR   IFR Intensif   IFR Très Intensif
Visi : 
Plafond : 
>= 8 km
>= 3000ft
5 à 8 km
1000 à 3000 ft
1500m à 5 km
500 à 1000 ft
800 à 1500m
200 à 500 ft
< 800m
< 200 ft
Symboles :   Orages  Brouillard  Fortes neiges  Fortes précipitations  Vent > 20 kt
SIGMETs :   Divers  Orages  Givrage  Turbulence  Onde Orograph.  Cendres Volcan.






- Altitude de l'aérodrome : 392 ft
- Code IATA : CDG


LFPG - Paris-Aeroport Charles De Gaulle

DERNIER METAR :
  • 262200Z AUTO 02006KT 350V110 CAVOK 17/09 Q1033 NOSIG

METARs EXPIRÉS :
  • 262130Z AUTO 02005G15KT 350V050 CAVOK 19/09 Q1033 NOSIG
  • 262100Z AUTO 02004KT CAVOK 19/09 Q1033 NOSIG
  • 262030Z AUTO 04003KT CAVOK 20/09 Q1033 NOSIG
  • 262000Z AUTO 03005KT CAVOK 20/09 Q1033 NOSIG
  • 261930Z AUTO 03006KT CAVOK 21/09 Q1033 NOSIG

TAF TAF LFPG
Valide du 26 à 18h jusqu'au 28 à 00h UTC


261700Z 2618/2724 04010KT CAVOK TX26/2715Z TN12/2704Z
ATIS : +33 1 48 62 10 92



MET'MAP, la Météo Aéronautique d'un coup d'oeil ! - Copyright ORBIFLY Décembre 2007 - Disclaimer

ORBIFLY MET'MAP TEAM :

Programmation & Développement : Alexandra Zaïnal
Sur une idée originale de : Baudouin d'Aumeries
Assistance à la programmation : Marc-Olivier Méhu
Soutien technique & logistique : Manuel Goepfert

Contact : metmap@orbifly.com




SOURCES & CREDITS :

   NOAA